Time;durP1;ratioP1;P1;durP2;ratioP2;P2;SDS_P1;SDS_P2;PMS_P1;PMS_P2;Temp;Humidity;BMP_temperature;BMP_pressure;BME280_temperature;BME280_humidity;BME280_pressure;Samples;Min_cycle;Max_cycle;Signal;HPM_P1;HPM_P2
2022/05/03 00:00:14;;;;;;;23.17;15.10;;;8.80;99.90;;;;;;5036440;28;20216;-90
2022/05/03 00:02:52;;;;;;;21.70;15.43;;;8.80;99.90;;;;;;5017540;28;20193;-91
2022/05/03 00:05:32;;;;;;;25.47;16.13;;;8.70;99.90;;;;;;5033817;28;20201;-91
2022/05/03 00:08:05;;;;;;;29.13;15.97;;;8.70;99.90;;;;;;5033832;28;20193;-89
2022/05/03 00:10:45;;;;;;;22.13;14.90;;;8.70;99.90;;;;;;5043024;28;20204;-91
2022/05/03 00:13:19;;;;;;;22.40;15.20;;;8.60;99.90;;;;;;5029930;28;20254;-89
2022/05/03 00:15:50;;;;;;;25.90;15.67;;;8.60;99.90;;;;;;5040733;28;20232;-90
2022/05/03 00:18:19;;;;;;;26.17;16.57;;;8.60;99.90;;;;;;5018681;28;20233;-89
2022/05/03 00:20:49;;;;;;;29.27;17.40;;;8.50;99.90;;;;;;5068888;28;20900;-90
2022/05/03 00:23:19;;;;;;;24.93;16.47;;;8.50;99.90;;;;;;5034179;28;20205;-91
2022/05/03 00:25:48;;;;;;;27.60;17.53;;;8.40;99.90;;;;;;5034037;28;20193;-91
2022/05/03 00:28:19;;;;;;;26.23;17.17;;;8.40;99.90;;;;;;5015645;28;20202;-90
2022/05/03 00:30:49;;;;;;;26.17;17.37;;;8.40;99.90;;;;;;5040460;28;20251;-91
2022/05/03 00:33:19;;;;;;;25.23;16.67;;;8.40;99.90;;;;;;5044153;28;20562;-90
2022/05/03 00:35:55;;;;;;;25.43;17.13;;;8.30;99.90;;;;;;5055349;28;20224;-91
2022/05/03 00:38:24;;;;;;;29.60;17.73;;;8.30;99.90;;;;;;5023484;28;20213;-91
2022/05/03 00:41:00;;;;;;;25.60;16.83;;;8.30;99.90;;;;;;5058624;28;20193;-89
2022/05/03 00:43:39;;;;;;;27.97;17.93;;;8.30;99.90;;;;;;5025558;28;20192;-89
2022/05/03 00:46:13;;;;;;;28.87;17.20;;;8.20;99.90;;;;;;5044357;28;20201;-90
2022/05/03 00:49:07;;;;;;;27.63;17.00;;;8.20;99.90;;;;;;5047142;28;20662;-90
2022/05/03 00:51:45;;;;;;;27.90;17.47;;;8.20;99.90;;;;;;5054735;28;20197;-90
2022/05/03 00:54:20;;;;;;;28.43;18.27;;;8.10;99.90;;;;;;5031848;28;20206;-90
2022/05/03 00:57:02;;;;;;;28.57;17.97;;;8.10;99.90;;;;;;5020785;28;20235;-90
2022/05/03 00:59:52;;;;;;;26.33;17.77;;;8.10;99.90;;;;;;5053094;28;20263;-90
2022/05/03 01:02:30;;;;;;;28.60;17.63;;;8.00;99.90;;;;;;5039534;28;20193;-91
2022/05/03 01:05:08;;;;;;;29.73;17.87;;;8.00;99.90;;;;;;5039568;28;20247;-89
2022/05/03 01:08:08;;;;;;;26.10;17.23;;;8.00;99.90;;;;;;5020607;28;20483;-92
2022/05/03 01:10:50;;;;;;;27.30;18.53;;;7.90;99.90;;;;;;5012450;28;20204;-88
2022/05/03 01:13:25;;;;;;;30.17;18.13;;;7.90;99.90;;;;;;5038730;28;20661;-92
2022/05/03 01:16:04;;;;;;;28.13;18.93;;;7.90;99.90;;;;;;5037119;28;20243;-90
2022/05/03 01:18:42;;;;;;;30.07;19.07;;;7.80;99.90;;;;;;5030942;28;20739;-90
2022/05/03 01:21:19;;;;;;;30.60;19.47;;;7.80;99.90;;;;;;5025314;28;20667;-89
2022/05/03 01:24:03;;;;;;;31.07;18.87;;;7.80;99.90;;;;;;5053446;28;20192;-89
2022/05/03 01:27:27;;;;;;;27.83;18.73;;;7.70;99.90;;;;;;5020177;28;20220;-91
2022/05/03 01:30:04;;;;;;;30.90;18.40;;;7.80;99.90;;;;;;5047547;28;20206;-90
2022/05/03 01:32:36;;;;;;;31.77;20.07;;;7.70;99.90;;;;;;5037071;28;20193;-89
2022/05/03 01:35:08;;;;;;;28.87;19.13;;;7.70;99.90;;;;;;5016540;28;20269;-89
2022/05/03 01:38:06;;;;;;;34.57;20.47;;;7.60;99.90;;;;;;5043973;28;20237;-90
2022/05/03 01:41:04;;;;;;;34.33;20.63;;;7.60;99.90;;;;;;5019863;28;20284;-89
2022/05/03 01:44:06;;;;;;;35.53;20.13;;;7.60;99.90;;;;;;5023629;28;20199;-90
2022/05/03 01:46:38;;;;;;;31.30;20.00;;;7.60;99.90;;;;;;5013643;28;20193;-90
2022/05/03 01:52:23;;;;;;;32.13;20.33;;;7.40;99.90;;;;;;5076719;28;20239;-89
2022/05/03 01:55:09;;;;;;;33.50;19.90;;;7.40;99.90;;;;;;5033107;28;20205;-90
2022/05/03 01:57:51;;;;;;;28.63;19.20;;;7.30;99.90;;;;;;5037874;28;20248;-90
2022/05/03 02:00:22;;;;;;;33.50;20.23;;;7.30;99.90;;;;;;5029193;28;20200;-90
2022/05/03 02:03:02;;;;;;;35.47;20.20;;;7.30;99.90;;;;;;5039256;28;20202;-89
2022/05/03 02:05:56;;;;;;;34.23;20.30;;;7.20;99.90;;;;;;5050045;28;20193;-90
2022/05/03 02:08:32;;;;;;;36.20;20.20;;;7.20;99.90;;;;;;5032390;28;20221;-89
2022/05/03 02:11:24;;;;;;;36.50;22.20;;;7.10;99.90;;;;;;5027024;28;20256;-90
2022/05/03 02:16:59;;;;;;;37.27;20.50;;;7.10;99.90;;;;;;5008455;28;20222;-91
2022/05/03 02:20:13;;;;;;;33.40;21.00;;;7.00;99.90;;;;;;5036853;28;20221;-90
2022/05/03 02:23:10;;;;;;;34.47;20.40;;;6.90;99.90;;;;;;5042171;28;20228;-89
2022/05/03 02:25:46;;;;;;;33.57;19.83;;;6.90;99.90;;;;;;5026329;28;20197;-91
2022/05/03 02:28:24;;;;;;;36.80;20.90;;;6.80;99.90;;;;;;5019288;28;20217;-90
2022/05/03 02:30:55;;;;;;;36.40;21.70;;;6.80;99.90;;;;;;5063284;28;20232;-91
2022/05/03 02:33:29;;;;;;;38.53;22.40;;;6.80;99.90;;;;;;5037430;28;20264;-90
2022/05/03 02:36:26;;;;;;;39.30;22.03;;;6.70;99.90;;;;;;5015528;28;20202;-89
2022/05/03 02:39:16;;;;;;;42.50;22.93;;;6.70;99.90;;;;;;5025231;28;20218;-90
2022/05/03 02:41:47;;;;;;;41.40;22.80;;;6.70;99.90;;;;;;5051532;28;20280;-90
2022/05/03 02:44:17;;;;;;;42.73;23.03;;;6.60;99.90;;;;;;5051755;28;20261;-89
2022/05/03 02:46:57;;;;;;;39.60;22.40;;;6.60;99.90;;;;;;5050642;28;20242;-90
2022/05/03 02:49:47;;;;;;;37.63;22.20;;;6.60;99.90;;;;;;5061911;28;20178;-88
2022/05/03 02:52:26;;;;;;;37.63;22.20;;;6.60;99.90;;;;;;5051124;28;20239;-91
2022/05/03 02:55:08;;;;;;;42.23;23.87;;;6.60;99.90;;;;;;5027209;28;20221;-91
2022/05/03 02:57:47;;;;;;;34.30;21.50;;;6.50;99.90;;;;;;5045729;28;20185;-91
2022/05/03 03:03:36;;;;;;;40.80;22.87;;;6.50;99.90;;;;;;5035092;28;20276;-92
2022/05/03 03:06:05;;;;;;;39.90;23.70;;;6.50;99.90;;;;;;5056958;28;20197;-92
2022/05/03 03:08:43;;;;;;;42.73;23.90;;;6.50;99.90;;;;;;5019035;28;20181;-89
2022/05/03 03:11:17;;;;;;;43.33;24.07;;;6.40;99.90;;;;;;5023164;28;20243;-89
2022/05/03 03:13:58;;;;;;;41.07;24.53;;;6.50;99.90;;;;;;5032880;28;20239;-90
2022/05/03 03:16:31;;;;;;;42.50;24.03;;;6.50;99.90;;;;;;5030759;28;20241;-91
2022/05/03 03:19:03;;;;;;;40.73;24.87;;;6.40;99.90;;;;;;5048236;28;20660;-93
2022/05/03 03:21:35;;;;;;;42.93;24.57;;;6.40;99.90;;;;;;5040873;28;20189;-91
2022/05/03 03:24:09;;;;;;;43.27;24.90;;;6.30;99.90;;;;;;5021393;28;20694;-91
2022/05/03 03:26:41;;;;;;;39.50;23.03;;;6.30;99.90;;;;;;5035296;28;20236;-91
2022/05/03 03:29:11;;;;;;;44.57;24.27;;;6.30;99.90;;;;;;5021681;28;20185;-92
2022/05/03 03:31:43;;;;;;;44.90;24.97;;;6.30;99.90;;;;;;5017260;28;20243;-93
2022/05/03 03:34:13;;;;;;;46.20;25.40;;;6.30;99.90;;;;;;5025053;28;20286;-92
2022/05/03 03:36:43;;;;;;;46.33;26.77;;;6.30;99.90;;;;;;5031051;28;20276;-91
2022/05/03 03:39:13;;;;;;;49.97;25.37;;;6.20;99.90;;;;;;5030426;28;20205;-92
2022/05/03 03:41:47;;;;;;;51.20;26.83;;;6.20;99.90;;;;;;5022905;28;20201;-92
2022/05/03 03:44:15;;;;;;;51.27;27.10;;;6.20;99.90;;;;;;5046945;28;20201;-92
2022/05/03 03:46:44;;;;;;;49.90;26.60;;;6.20;99.90;;;;;;5015656;28;20189;-93
2022/05/03 03:49:13;;;;;;;51.37;27.47;;;6.20;99.90;;;;;;5014173;28;20212;-91
2022/05/03 03:51:42;;;;;;;51.23;26.87;;;6.20;99.90;;;;;;5036883;28;20268;-90
2022/05/03 03:54:13;;;;;;;50.77;28.93;;;6.20;99.90;;;;;;5021392;28;20257;-91
2022/05/03 03:56:42;;;;;;;50.83;26.03;;;6.20;99.90;;;;;;5033621;28;20202;-92
2022/05/03 03:59:11;;;;;;;52.30;28.17;;;6.20;99.90;;;;;;5070952;28;20217;-92
2022/05/03 04:01:41;;;;;;;47.10;27.43;;;6.20;99.90;;;;;;5016240;28;20182;-91
2022/05/03 04:04:12;;;;;;;52.07;28.43;;;6.20;99.90;;;;;;5054093;28;20665;-92
2022/05/03 04:06:41;;;;;;;57.70;29.90;;;6.20;99.90;;;;;;5035711;28;20625;-91
2022/05/03 04:09:09;;;;;;;50.47;28.47;;;6.10;99.90;;;;;;5039333;28;20190;-92
2022/05/03 04:11:47;;;;;;;55.63;29.33;;;6.10;99.90;;;;;;5017642;28;20194;-93
2022/05/03 04:14:16;;;;;;;58.93;30.27;;;6.10;99.90;;;;;;5020384;28;20193;-91
2022/05/03 04:16:45;;;;;;;54.93;29.47;;;6.10;99.90;;;;;;5049433;28;20221;-93
2022/05/03 04:19:14;;;;;;;59.67;31.17;;;6.10;99.90;;;;;;5055364;28;20232;-92
2022/05/03 04:21:43;;;;;;;54.50;29.23;;;6.10;99.90;;;;;;5034338;28;20195;-91
2022/05/03 04:24:11;;;;;;;57.00;30.87;;;6.10;99.90;;;;;;5034716;28;20213;-91
2022/05/03 04:26:40;;;;;;;56.93;29.23;;;6.10;99.90;;;;;;5039769;28;20201;-91
2022/05/03 04:29:11;;;;;;;53.67;30.13;;;6.00;99.90;;;;;;5038262;28;20227;-92
2022/05/03 04:31:42;;;;;;;53.40;30.80;;;6.10;99.90;;;;;;5019579;28;20193;-92
2022/05/03 04:34:11;;;;;;;56.40;30.27;;;6.10;99.90;;;;;;5052536;28;20552;-92
2022/05/03 04:36:39;;;;;;;57.93;29.67;;;6.10;99.90;;;;;;5050502;28;20203;-92
2022/05/03 04:39:09;;;;;;;65.00;31.43;;;6.10;99.90;;;;;;5031986;28;20213;-91
2022/05/03 04:41:37;;;;;;;61.60;32.73;;;6.00;99.90;;;;;;5068415;28;20204;-93
2022/05/03 04:44:06;;;;;;;64.60;31.57;;;6.10;99.90;;;;;;5029516;28;20220;-92
2022/05/03 04:46:36;;;;;;;62.23;31.67;;;6.10;99.90;;;;;;5017772;28;20198;-91
2022/05/03 04:49:05;;;;;;;64.40;33.20;;;6.10;99.90;;;;;;5028746;28;20194;-92
2022/05/03 04:51:39;;;;;;;68.67;36.03;;;6.10;99.90;;;;;;5017595;28;20201;-92
2022/05/03 04:54:08;;;;;;;83.07;42.60;;;6.20;99.90;;;;;;5046275;28;20229;-90
2022/05/03 04:56:38;;;;;;;69.53;37.37;;;6.20;99.90;;;;;;5020489;28;20202;-91
2022/05/03 04:59:07;;;;;;;75.10;38.97;;;6.30;99.90;;;;;;5034237;28;20260;-91
2022/05/03 05:01:36;;;;;;;74.97;36.90;;;6.30;99.90;;;;;;5049976;28;20194;-91
2022/05/03 05:04:05;;;;;;;73.23;37.80;;;6.40;99.90;;;;;;5045063;28;20201;-91
2022/05/03 05:06:34;;;;;;;76.87;37.93;;;6.50;99.90;;;;;;5011063;28;20229;-91
2022/05/03 05:09:03;;;;;;;67.50;35.70;;;6.50;99.90;;;;;;5017920;28;20186;-90
2022/05/03 05:11:31;;;;;;;71.53;36.43;;;6.60;99.90;;;;;;5017709;28;20649;-92
2022/05/03 05:14:00;;;;;;;78.17;37.10;;;6.60;99.90;;;;;;5034045;28;20220;-91
2022/05/03 05:16:29;;;;;;;74.10;34.20;;;6.80;99.90;;;;;;5036114;28;20228;-91
2022/05/03 05:19:00;;;;;;;75.20;35.53;;;6.80;99.90;;;;;;5053910;28;20233;-91
2022/05/03 05:21:30;;;;;;;73.57;36.40;;;6.90;99.90;;;;;;5020241;28;20189;-91
2022/05/03 05:23:58;;;;;;;70.80;35.73;;;7.00;99.90;;;;;;5070410;28;20239;-92
2022/05/03 05:26:27;;;;;;;68.70;35.13;;;7.20;99.90;;;;;;5037598;28;20214;-91
2022/05/03 05:28:57;;;;;;;70.83;35.07;;;7.30;99.90;;;;;;5029998;28;20193;-94
2022/05/03 05:35:24;;;;;;;62.67;32.67;;;7.60;99.90;;;;;;4996559;28;20259;-92
2022/05/03 05:37:52;;;;;;;63.23;32.60;;;7.80;99.90;;;;;;5037000;28;20725;-92
2022/05/03 05:40:21;;;;;;;62.77;33.20;;;7.90;99.90;;;;;;5016991;28;20275;-91
2022/05/03 05:42:50;;;;;;;66.20;31.97;;;8.00;99.90;;;;;;5033583;28;20283;-93
2022/05/03 05:45:19;;;;;;;62.63;32.40;;;8.20;99.90;;;;;;5040633;28;20193;-93
2022/05/03 05:47:48;;;;;;;59.23;31.93;;;8.30;99.90;;;;;;5038427;28;20193;-92
2022/05/03 05:50:17;;;;;;;57.33;31.07;;;8.50;99.90;;;;;;5053282;28;20221;-91
2022/05/03 05:55:33;;;;;;;57.17;31.30;;;8.70;99.90;;;;;;5053835;28;20296;-92
2022/05/03 05:58:05;;;;;;;57.60;31.00;;;8.90;99.90;;;;;;5054109;28;20280;-93
2022/05/03 06:00:34;;;;;;;57.47;31.80;;;9.00;99.90;;;;;;5053730;28;20213;-92
2022/05/03 06:03:04;;;;;;;53.33;30.50;;;9.10;99.90;;;;;;5054176;28;20229;-94
2022/05/03 06:05:33;;;;;;;52.90;29.53;;;9.20;99.90;;;;;;5053447;28;20315;-92
2022/05/03 06:08:03;;;;;;;53.90;30.03;;;9.40;99.90;;;;;;5016488;28;20201;-92
2022/05/03 06:10:32;;;;;;;49.50;28.87;;;9.60;99.90;;;;;;5052524;28;20181;-92
2022/05/03 06:13:02;;;;;;;54.13;29.53;;;9.70;99.90;;;;;;5019532;28;20275;-92
2022/05/03 06:15:31;;;;;;;51.03;28.33;;;9.80;99.90;;;;;;5056513;28;20570;-91
2022/05/03 06:18:01;;;;;;;53.87;28.37;;;9.90;99.90;;;;;;5016263;28;20651;-93
2022/05/03 06:20:30;;;;;;;46.93;26.80;;;10.00;99.90;;;;;;5021483;28;20241;-92
2022/05/03 06:22:58;;;;;;;50.27;27.83;;;10.10;99.90;;;;;;5019736;28;20684;-93
2022/05/03 06:25:28;;;;;;;44.20;26.30;;;10.20;99.90;;;;;;5031580;28;20279;-90
2022/05/03 06:27:57;;;;;;;48.17;26.83;;;10.40;99.90;;;;;;5019395;28;20672;-92
2022/05/03 06:30:25;;;;;;;46.10;27.17;;;10.60;99.90;;;;;;5047968;28;20193;-92
2022/05/03 06:32:55;;;;;;;42.03;25.07;;;10.80;99.90;;;;;;5057395;28;20279;-92
2022/05/03 06:35:24;;;;;;;42.57;25.00;;;11.00;99.90;;;;;;5029452;28;20209;-92
2022/05/03 06:37:52;;;;;;;44.70;25.10;;;11.20;99.90;;;;;;5019545;28;20189;-92
2022/05/03 06:40:21;;;;;;;37.33;24.13;;;11.20;99.90;;;;;;5041086;28;20206;-93
2022/05/03 06:42:51;;;;;;;37.07;23.93;;;11.20;99.90;;;;;;5018262;28;20197;-93
2022/05/03 06:45:20;;;;;;;36.70;22.67;;;11.30;99.90;;;;;;5018070;28;20228;-90
2022/05/03 06:47:49;;;;;;;36.40;23.07;;;11.50;99.90;;;;;;5053960;28;20197;-95
2022/05/03 06:50:18;;;;;;;31.53;20.37;;;11.70;99.90;;;;;;5020356;28;20213;-94
2022/05/03 06:52:48;;;;;;;33.00;20.57;;;11.90;99.90;;;;;;5015612;28;20607;-92
2022/05/03 06:55:16;;;;;;;31.77;18.93;;;12.10;99.90;;;;;;5041118;28;20194;-93
2022/05/03 06:57:45;;;;;;;32.63;18.27;;;12.20;99.90;;;;;;5051772;28;20281;-90
2022/05/03 07:00:16;;;;;;;28.03;17.57;;;12.40;99.90;;;;;;5050979;28;20566;-93
2022/05/03 07:02:45;;;;;;;27.90;17.70;;;12.60;99.90;;;;;;5018546;28;20193;-91
2022/05/03 07:05:14;;;;;;;25.10;15.73;;;12.80;99.90;;;;;;5068091;28;20229;-92
2022/05/03 07:07:43;;;;;;;22.80;15.10;;;12.80;99.90;;;;;;5019126;28;20241;-92
2022/05/03 07:10:11;;;;;;;23.47;15.17;;;13.10;99.90;;;;;;5018766;28;20194;-93
2022/05/03 07:12:40;;;;;;;23.83;14.80;;;13.20;99.90;;;;;;5018360;28;20245;-93
2022/05/03 07:15:10;;;;;;;26.57;15.33;;;13.40;99.90;;;;;;5019166;28;20288;-90
2022/05/03 07:23:19;;;;;;;19.40;13.67;;;13.90;99.90;;;;;;5015374;28;20221;-90
2022/05/03 07:25:48;;;;;;;24.33;14.40;;;14.10;99.90;;;;;;5036942;28;20194;-92
2022/05/03 07:28:17;;;;;;;19.43;14.17;;;14.20;99.90;;;;;;5023034;28;20222;-90
2022/05/03 07:30:47;;;;;;;20.30;13.67;;;14.40;99.90;;;;;;5042466;28;20200;-91
2022/05/03 07:33:17;;;;;;;19.23;14.20;;;14.50;99.90;;;;;;5056130;28;20193;-90
2022/05/03 07:35:46;;;;;;;20.90;14.27;;;14.80;99.90;;;;;;5056042;28;20224;-90
2022/05/03 07:38:14;;;;;;;20.10;13.17;;;14.80;99.90;;;;;;5054084;28;20201;-90
2022/05/03 07:40:43;;;;;;;17.03;13.83;;;15.10;99.90;;;;;;5019666;28;20221;-90
2022/05/03 07:43:14;;;;;;;20.07;14.40;;;15.30;99.90;;;;;;5053267;28;20188;-90
2022/05/03 07:45:42;;;;;;;20.47;14.03;;;15.50;99.90;;;;;;5052645;28;20201;-90
2022/05/03 07:48:11;;;;;;;20.57;13.70;;;15.50;99.90;;;;;;5019302;28;20200;-90
2022/05/03 07:50:42;;;;;;;20.93;13.17;;;15.60;99.90;;;;;;5018842;28;20193;-90
2022/05/03 07:53:11;;;;;;;19.80;13.47;;;15.80;99.90;;;;;;5018670;28;20223;-90
2022/05/03 07:55:39;;;;;;;18.30;13.13;;;15.70;99.90;;;;;;5018647;28;20222;-91
2022/05/03 07:58:08;;;;;;;18.27;13.00;;;15.70;99.90;;;;;;5034848;28;20197;-92
2022/05/03 08:00:39;;;;;;;17.17;12.90;;;15.80;99.90;;;;;;5018755;28;20263;-90
2022/05/03 08:03:08;;;;;;;14.73;12.10;;;15.90;99.90;;;;;;5018875;28;20186;-92
2022/05/03 08:05:39;;;;;;;17.40;12.00;;;16.00;99.90;;;;;;5035096;28;20228;-91
2022/05/03 08:08:09;;;;;;;18.17;12.77;;;16.10;99.90;;;;;;5018883;28;20178;-90
2022/05/03 08:10:38;;;;;;;17.03;11.13;;;16.50;99.90;;;;;;5035268;28;20190;-91
2022/05/03 08:13:06;;;;;;;18.00;11.87;;;16.70;99.90;;;;;;5035928;28;20579;-91
2022/05/03 08:15:36;;;;;;;17.50;12.30;;;16.80;99.90;;;;;;5036293;28;20200;-92
2022/05/03 08:18:04;;;;;;;18.30;10.80;;;16.80;99.90;;;;;;5022413;28;20194;-92
2022/05/03 08:20:33;;;;;;;20.40;12.40;;;17.00;99.90;;;;;;5033080;28;20260;-92
2022/05/03 08:23:02;;;;;;;15.87;11.80;;;17.20;99.90;;;;;;5038846;28;20214;-91
2022/05/03 08:25:33;;;;;;;14.17;10.93;;;17.50;99.90;;;;;;5036877;28;20220;-93
2022/05/03 08:28:01;;;;;;;14.43;11.23;;;17.80;99.90;;;;;;5036544;28;20195;-92
2022/05/03 08:30:32;;;;;;;16.27;12.40;;;18.00;99.90;;;;;;5042561;28;20217;-94
2022/05/03 08:33:00;;;;;;;17.67;11.07;;;18.10;99.90;;;;;;5038932;28;20210;-93
2022/05/03 08:35:35;;;;;;;11.93;10.03;;;18.40;99.90;;;;;;5053005;28;20237;-92
2022/05/03 08:43:43;;;;;;;15.53;10.53;;;19.00;99.90;;;;;;5018276;28;20245;-91
2022/05/03 08:46:12;;;;;;;11.77;10.13;;;19.60;99.90;;;;;;5017514;28;20211;-92
2022/05/03 08:48:44;;;;;;;13.20;11.03;;;20.10;99.90;;;;;;5018648;28;20193;-91
2022/05/03 08:51:19;;;;;;;14.13;11.43;;;20.00;99.90;;;;;;5036580;28;20281;-91
2022/05/03 08:53:48;;;;;;;15.37;11.53;;;20.00;99.90;;;;;;5038013;28;20213;-92
2022/05/03 08:56:20;;;;;;;12.20;10.90;;;19.90;99.90;;;;;;5021641;28;20655;-92
2022/05/03 08:58:49;;;;;;;12.47;11.13;;;20.20;99.90;;;;;;5055194;28;20186;-92
2022/05/03 09:01:20;;;;;;;14.60;11.60;;;20.10;99.90;;;;;;5022204;28;20221;-93
2022/05/03 09:03:48;;;;;;;11.83;10.50;;;20.30;99.90;;;;;;5022650;28;20185;-92
2022/05/03 09:06:18;;;;;;;12.23;10.23;;;20.80;99.90;;;;;;5021756;28;20186;-92
2022/05/03 09:08:51;;;;;;;12.95;10.57;;;21.20;99.90;;;;;;5021712;28;20240;-92
2022/05/03 09:11:21;;;;;;;12.82;11.32;;;21.30;99.90;;;;;;5021411;28;20240;-94
2022/05/03 09:13:50;;;;;;;12.27;10.00;;;21.50;99.90;;;;;;5021161;28;20260;-91
2022/05/03 09:16:20;;;;;;;10.77;9.55;;;21.80;99.90;;;;;;5021557;28;20694;-92
2022/05/03 09:18:52;;;;;;;9.93;8.57;;;21.80;99.90;;;;;;5022130;28;20249;-93
2022/05/03 09:24:10;;;;;;;9.57;8.63;;;22.10;99.90;;;;;;5054226;28;20193;-93
2022/05/03 09:26:41;;;;;;;8.93;8.20;;;22.30;99.90;;;;;;5021045;28;20187;-93
2022/05/03 09:29:11;;;;;;;8.70;7.80;;;22.70;99.90;;;;;;5054098;28;20195;-93
2022/05/03 09:31:42;;;;;;;9.07;7.80;;;23.20;99.90;;;;;;5021338;28;20252;-91
2022/05/03 09:34:19;;;;;;;9.38;8.23;;;23.50;99.90;;;;;;5053658;28;20193;-91
2022/05/03 09:36:50;;;;;;;8.40;7.18;;;23.40;99.20;;;;;;5054830;28;20189;-92
2022/05/03 09:39:41;;;;;;;7.85;7.18;;;23.30;99.90;;;;;;5021360;28;20194;-92
2022/05/03 09:42:14;;;;;;;7.10;6.50;;;23.30;99.70;;;;;;5020485;28;20173;-92
2022/05/03 09:44:53;;;;;;;8.27;6.53;;;23.30;99.50;;;;;;5021421;28;20190;-93
2022/05/03 09:47:23;;;;;;;7.60;6.90;;;23.50;98.70;;;;;;5020846;28;20267;-92
2022/05/03 09:49:52;;;;;;;13.95;7.35;;;23.50;98.10;;;;;;5020819;28;20194;-94
2022/05/03 09:52:28;;;;;;;8.40;7.70;;;23.50;97.80;;;;;;5020715;28;20223;-93
2022/05/03 09:55:03;;;;;;;8.73;7.85;;;23.50;99.20;;;;;;5020752;28;20606;-93
2022/05/03 09:57:38;;;;;;;10.50;7.32;;;23.90;98.20;;;;;;5053904;28;20643;-93
2022/05/03 10:00:09;;;;;;;8.27;7.55;;;24.50;98.20;;;;;;5020624;28;20195;-92
2022/05/03 10:02:42;;;;;;;8.32;7.63;;;24.80;96.90;;;;;;5037448;28;20191;-93
2022/05/03 10:05:52;;;;;;;10.07;8.98;;;25.00;97.00;;;;;;5038600;28;20676;-93
2022/05/03 10:08:22;;;;;;;9.95;8.95;;;25.00;97.80;;;;;;5020859;28;20192;-92
2022/05/03 10:10:57;;;;;;;6.88;6.20;;;25.20;97.60;;;;;;5020826;28;20221;-91
2022/05/03 10:13:30;;;;;;;6.05;5.63;;;25.40;96.30;;;;;;5036819;28;20224;-92
2022/05/03 10:21:39;;;;;;;8.73;7.78;;;24.80;95.30;;;;;;5020212;28;20302;-93
2022/05/03 10:24:11;;;;;;;9.10;8.25;;;24.70;95.00;;;;;;5020625;28;20553;-92
2022/05/03 10:27:01;;;;;;;10.18;7.97;;;24.90;96.70;;;;;;5020671;28;20210;-92
2022/05/03 10:29:33;;;;;;;7.40;5.35;;;25.30;96.90;;;;;;5021022;28;20195;-92
2022/05/03 10:32:15;;;;;;;6.35;5.78;;;25.50;95.80;;;;;;5019988;28;20628;-93
2022/05/03 10:34:56;;;;;;;7.30;6.60;;;25.20;95.30;;;;;;5053015;28;20219;-94
2022/05/03 10:38:05;;;;;;;6.93;6.15;;;25.30;95.50;;;;;;5021089;28;20611;-94
2022/05/03 10:40:39;;;;;;;8.85;6.32;;;25.20;94.60;;;;;;5000701;28;20211;-92
2022/05/03 10:43:14;;;;;;;5.65;5.25;;;25.30;94.50;;;;;;5019617;28;20193;-94
2022/05/03 10:45:52;;;;;;;5.20;4.70;;;25.00;93.80;;;;;;5036137;28;20187;-93
2022/05/03 10:48:26;;;;;;;6.70;6.03;;;24.60;94.00;;;;;;5052795;28;20214;-94
2022/05/03 10:50:57;;;;;;;6.00;5.47;;;24.90;94.10;;;;;;5019940;28;20237;-92
2022/05/03 10:53:31;;;;;;;6.57;6.03;;;25.30;96.30;;;;;;5019342;28;20211;-92
2022/05/03 10:56:08;;;;;;;8.07;7.28;;;25.10;94.00;;;;;;5052144;28;20630;-93
2022/05/03 10:58:40;;;;;;;7.10;5.97;;;25.10;96.30;;;;;;5035886;28;20189;-92
2022/05/03 11:01:19;;;;;;;7.55;6.07;;;24.90;95.00;;;;;;5052594;28;20201;-93
2022/05/03 11:04:09;;;;;;;6.15;5.63;;;25.40;95.60;;;;;;5052350;28;20700;-92
2022/05/03 11:06:49;;;;;;;6.07;5.57;;;25.20;94.10;;;;;;5019342;28;20192;-92
2022/05/03 11:09:28;;;;;;;7.32;6.63;;;25.40;94.50;;;;;;5020107;28;20186;-92
2022/05/03 11:12:07;;;;;;;6.70;5.80;;;25.90;93.70;;;;;;5020018;28;20210;-94
2022/05/03 11:14:55;;;;;;;5.63;5.00;;;25.00;93.60;;;;;;5052169;28;20252;-91
2022/05/03 11:17:25;;;;;;;6.07;5.43;;;24.60;95.00;;;;;;5018971;28;20229;-92
2022/05/03 11:19:58;;;;;;;6.27;5.67;;;23.70;96.00;;;;;;5052014;28;20632;-91
2022/05/03 11:22:32;;;;;;;7.50;6.80;;;23.00;96.30;;;;;;5019765;28;20190;-91
2022/05/03 11:25:12;;;;;;;9.57;6.47;;;23.30;96.40;;;;;;5051884;28;20190;-92
2022/05/03 11:27:43;;;;;;;8.13;5.67;;;23.10;95.70;;;;;;5019203;28;20193;-91
2022/05/03 11:30:16;;;;;;;7.10;6.40;;;22.40;96.50;;;;;;5019814;28;20653;-92
2022/05/03 11:32:46;;;;;;;7.13;6.40;;;21.80;96.00;;;;;;5051794;28;20215;-92
2022/05/03 11:35:17;;;;;;;7.27;6.57;;;21.30;97.10;;;;;;5019321;28;20293;-92
2022/05/03 11:37:48;;;;;;;9.20;6.40;;;20.90;97.70;;;;;;5018531;28;20193;-92
2022/05/03 11:40:20;;;;;;;7.10;6.43;;;20.70;98.10;;;;;;5018955;28;20231;-91
2022/05/03 11:42:49;;;;;;;8.50;6.33;;;20.50;99.20;;;;;;5035271;28;20185;-91
2022/05/03 11:45:19;;;;;;;8.23;6.80;;;20.40;99.50;;;;;;5018716;28;20209;-91
2022/05/03 11:47:51;;;;;;;5.37;5.07;;;20.30;99.80;;;;;;5051361;28;20213;-91
2022/05/03 11:56:01;;;;;;;5.70;5.20;;;19.90;99.40;;;;;;5051692;28;20288;-91
2022/05/03 11:58:34;;;;;;;5.70;5.30;;;19.80;97.30;;;;;;5019240;28;20213;-92
2022/05/03 12:01:13;;;;;;;5.07;4.67;;;19.60;97.90;;;;;;5051918;28;20212;-92
2022/05/03 12:03:51;;;;;;;5.93;5.30;;;19.70;98.10;;;;;;5018442;28;20710;-91
2022/05/03 12:06:21;;;;;;;6.23;5.60;;;19.70;99.90;;;;;;5019107;28;20189;-92
2022/05/03 12:08:52;;;;;;;11.90;8.80;;;19.70;98.60;;;;;;5019030;28;20230;-92
2022/05/03 12:11:24;;;;;;;12.53;8.83;;;20.20;99.90;;;;;;5051430;28;20196;-93
2022/05/03 12:13:53;;;;;;;11.30;8.20;;;20.90;99.90;;;;;;5018324;28;20737;-91
2022/05/03 12:16:24;;;;;;;10.60;8.17;;;21.40;99.90;;;;;;5022557;28;20241;-94
2022/05/03 12:19:01;;;;;;;9.20;7.93;;;21.70;99.40;;;;;;5020642;28;20219;-91
2022/05/03 12:21:30;;;;;;;8.30;6.70;;;21.80;99.60;;;;;;5019448;28;20208;-92
2022/05/03 12:24:01;;;;;;;10.87;8.10;;;21.80;99.10;;;;;;5051604;28;20621;-92
2022/05/03 12:26:37;;;;;;;9.53;8.53;;;21.40;99.60;;;;;;5055042;28;20220;-93
2022/05/03 12:29:07;;;;;;;10.23;8.60;;;20.70;99.10;;;;;;5023555;28;20189;-91
2022/05/03 12:31:38;;;;;;;14.77;9.67;;;20.50;99.90;;;;;;5023682;28;20213;-93
2022/05/03 12:34:11;;;;;;;17.17;9.20;;;20.00;99.90;;;;;;5055569;28;20267;-93
2022/05/03 12:36:41;;;;;;;10.03;9.03;;;19.70;99.90;;;;;;5022392;28;20219;-91
2022/05/03 12:39:12;;;;;;;10.57;9.57;;;19.70;99.90;;;;;;5055550;28;20193;-91
2022/05/03 12:41:54;;;;;;;10.90;9.80;;;19.60;99.90;;;;;;5022822;28;20208;-91
2022/05/03 12:44:24;;;;;;;10.10;8.93;;;19.60;99.90;;;;;;5055071;28;20181;-91
2022/05/03 12:47:01;;;;;;;13.33;10.07;;;19.70;99.90;;;;;;5021828;28;20189;-92
2022/05/03 12:49:33;;;;;;;11.23;8.97;;;19.70;99.90;;;;;;5022082;28;20213;-91
2022/05/03 12:52:02;;;;;;;11.23;10.13;;;19.70;99.90;;;;;;5022135;28;20281;-91
2022/05/03 12:54:31;;;;;;;9.83;8.87;;;19.80;99.90;;;;;;5021959;28;20308;-92
2022/05/03 12:59:49;;;;;;;12.00;10.33;;;19.90;99.90;;;;;;5055362;28;20224;-91
2022/05/03 13:02:19;;;;;;;13.60;9.80;;;20.10;99.90;;;;;;5021690;28;20248;-93
2022/05/03 13:04:49;;;;;;;11.10;9.97;;;20.20;99.90;;;;;;5021338;28;20193;-92
2022/05/03 13:07:18;;;;;;;10.87;9.23;;;20.30;99.90;;;;;;5054769;28;20190;-92
2022/05/03 13:09:50;;;;;;;14.97;9.23;;;20.20;99.90;;;;;;5021677;28;20189;-92
2022/05/03 13:12:19;;;;;;;12.40;8.87;;;20.00;99.90;;;;;;5021349;28;20244;-92
2022/05/03 13:14:48;;;;;;;9.50;8.67;;;20.00;99.90;;;;;;5021323;28;20343;-91
2022/05/03 13:17:17;;;;;;;9.57;8.67;;;20.00;99.90;;;;;;5021429;28;20233;-91
2022/05/03 13:19:46;;;;;;;9.47;8.57;;;19.90;99.90;;;;;;5054405;28;20284;-92
2022/05/03 13:22:16;;;;;;;11.40;9.07;;;19.90;99.90;;;;;;5021307;28;20197;-93
2022/05/03 13:24:44;;;;;;;9.97;8.97;;;20.00;99.90;;;;;;5021072;28;20212;-92
2022/05/03 13:27:13;;;;;;;9.43;8.43;;;19.90;99.90;;;;;;5021331;28;20200;-93
2022/05/03 13:29:42;;;;;;;9.70;8.10;;;19.80;99.90;;;;;;5021509;28;20208;-92
2022/05/03 13:32:10;;;;;;;8.63;7.73;;;19.90;99.90;;;;;;5054029;28;20193;-93
2022/05/03 13:34:39;;;;;;;9.17;8.27;;;19.90;99.90;;;;;;5020927;28;20216;-92
2022/05/03 13:42:56;;;;;;;8.93;7.93;;;19.90;99.90;;;;;;4946040;28;20199;-91
2022/05/03 13:45:25;;;;;;;8.40;7.70;;;20.00;99.90;;;;;;4956268;28;20646;-90
2022/05/03 13:48:13;;;;;;;8.77;7.90;;;20.20;99.90;;;;;;4978900;28;20242;-91
2022/05/03 13:50:43;;;;;;;9.07;8.00;;;20.70;99.90;;;;;;5002882;28;20221;-92
2022/05/03 13:53:13;;;;;;;7.73;7.03;;;21.00;99.90;;;;;;5034972;28;20222;-92
2022/05/03 13:55:43;;;;;;;8.57;7.53;;;21.30;99.90;;;;;;5033963;28;20194;-92
2022/05/03 13:58:12;;;;;;;7.97;7.30;;;21.30;99.90;;;;;;5033832;28;20198;-92